Time;durP1;ratioP1;P1;durP2;ratioP2;P2;SDS_P1;SDS_P2;PMS_P1;PMS_P2;Temp;Humidity;BMP_temperature;BMP_pressure;BME280_temperature;BME280_humidity;BME280_pressure;Samples;Min_cycle;Max_cycle;Signal;HPM_P1;HPM_P2
2022/11/30 00:01:10;;;;;;;;;;;15.00;99.90;;;;;;4969273;28;19957;-75
2022/11/30 00:03:35;;;;;;;;;;;15.00;99.90;;;;;;4962163;28;19960;-74
2022/11/30 00:06:09;;;;;;;;;;;15.00;99.90;;;;;;4968101;28;20024;-74
2022/11/30 00:08:34;;;;;;;;;;;14.80;99.90;;;;;;4970428;28;19921;-74
2022/11/30 00:11:05;;;;;;;;;;;15.00;99.90;;;;;;4971010;28;19914;-74
2022/11/30 00:13:31;;;;;;;;;;;15.00;99.90;;;;;;4964461;28;20186;-74
2022/11/30 00:15:59;;;;;;;;;;;15.00;99.90;;;;;;4970951;28;19914;-75
2022/11/30 00:18:24;;;;;;;;;;;14.80;99.90;;;;;;4968608;28;19918;-75
2022/11/30 00:20:50;;;;;;;;;;;14.70;99.90;;;;;;4971303;28;19964;-75
2022/11/30 00:23:15;;;;;;;;;;;14.70;99.90;;;;;;4979896;28;19917;-74
2022/11/30 00:25:41;;;;;;;;;;;14.60;99.90;;;;;;4980467;28;20290;-75
2022/11/30 00:28:06;;;;;;;;;;;14.60;99.90;;;;;;4970858;28;19914;-75
2022/11/30 00:30:32;;;;;;;;;;;14.60;99.90;;;;;;4998565;28;19921;-75
2022/11/30 00:32:57;;;;;;;;;;;14.70;99.90;;;;;;4969389;28;19910;-74
2022/11/30 00:35:23;;;;;;;;;;;14.70;99.90;;;;;;4964089;28;20050;-75
2022/11/30 00:37:48;;;;;;;;;;;14.80;99.90;;;;;;4967938;28;19937;-74
2022/11/30 00:40:14;;;;;;;;;;;14.80;99.90;;;;;;4961858;28;20219;-75
2022/11/30 00:42:40;;;;;;;;;;;14.60;99.90;;;;;;4972123;28;19910;-74
2022/11/30 00:45:05;;;;;;;;;;;14.60;99.90;;;;;;4960449;28;19922;-74
2022/11/30 00:47:31;;;;;;;;;;;14.60;99.90;;;;;;4967571;28;19910;-75
2022/11/30 00:49:56;;;;;;;;;;;14.70;99.90;;;;;;4966466;28;20295;-74
2022/11/30 00:52:22;;;;;;;;;;;14.30;99.90;;;;;;4968882;28;19976;-74
2022/11/30 00:54:47;;;;;;;;;;;14.40;99.90;;;;;;4974786;28;19913;-74
2022/11/30 00:57:13;;;;;;;;;;;14.20;99.90;;;;;;4972051;28;19910;-75
2022/11/30 00:59:38;;;;;;;;;;;14.10;99.90;;;;;;4964183;28;19914;-74
2022/11/30 01:02:04;;;;;;;;;;;14.20;99.90;;;;;;4971283;28;19978;-73
2022/11/30 01:04:29;;;;;;;;;;;13.70;99.90;;;;;;4969926;28;20082;-74
2022/11/30 01:06:55;;;;;;;;;;;13.80;99.90;;;;;;4977724;28;19917;-75
2022/11/30 01:09:20;;;;;;;;;;;13.90;99.90;;;;;;4964719;28;19910;-74
2022/11/30 01:11:45;;;;;;;;;;;14.20;99.90;;;;;;4963861;28;20537;-74
2022/11/30 01:14:11;;;;;;;;;;;14.10;99.90;;;;;;4973065;28;20431;-75
2022/11/30 01:16:36;;;;;;;;;;;14.10;99.90;;;;;;4969219;28;20065;-74
2022/11/30 01:19:02;;;;;;;;;;;13.90;99.90;;;;;;4986740;28;20657;-75
2022/11/30 01:21:28;;;;;;;;;;;13.70;99.90;;;;;;4965717;28;19936;-74
2022/11/30 01:23:54;;;;;;;;;;;13.70;99.90;;;;;;4965902;28;19918;-75
2022/11/30 01:26:20;;;;;;;;;;;13.70;99.90;;;;;;4966475;28;19914;-74
2022/11/30 01:28:52;;;;;;;;;;;13.80;99.90;;;;;;4965525;28;19910;-74
2022/11/30 01:31:18;;;;;;;;;;;13.80;99.90;;;;;;5002082;28;20249;-74
2022/11/30 01:33:47;;;;;;;;;;;13.80;99.90;;;;;;4983241;28;19969;-74
2022/11/30 01:36:14;;;;;;;;;;;13.70;99.90;;;;;;4971538;28;19940;-74
2022/11/30 01:38:40;;;;;;;;;;;13.50;99.90;;;;;;4970307;28;19976;-74
2022/11/30 01:41:07;;;;;;;;;;;13.60;99.90;;;;;;4964971;28;19969;-74
2022/11/30 01:43:40;;;;;;;;;;;13.50;99.90;;;;;;4966206;28;19916;-74
2022/11/30 01:46:25;;;;;;;;;;;13.60;99.90;;;;;;4968913;28;19921;-74
2022/11/30 01:48:54;;;;;;;;;;;13.40;99.90;;;;;;4966251;28;19957;-74
2022/11/30 01:51:20;;;;;;;;;;;13.40;99.90;;;;;;4972439;28;19922;-74
2022/11/30 01:53:45;;;;;;;;;;;13.40;99.90;;;;;;4990192;28;19918;-74
2022/11/30 01:56:11;;;;;;;;;;;12.90;99.90;;;;;;4967030;28;19910;-74
2022/11/30 01:58:36;;;;;;;;;;;12.80;99.90;;;;;;4967534;28;19946;-73
2022/11/30 02:01:02;;;;;;;;;;;12.90;99.90;;;;;;4970542;28;20387;-74
2022/11/30 02:03:33;;;;;;;;;;;12.80;99.90;;;;;;4961875;28;20337;-74
2022/11/30 02:05:59;;;;;;;;;;;12.90;99.90;;;;;;4959761;28;19922;-74
2022/11/30 02:08:26;;;;;;;;;;;12.80;99.90;;;;;;4966377;28;20336;-75
2022/11/30 02:10:54;;;;;;;;;;;13.00;99.90;;;;;;4965653;28;19914;-75
2022/11/30 02:13:19;;;;;;;;;;;13.20;99.90;;;;;;4968767;28;20835;-75
2022/11/30 02:16:08;;;;;;;;;;;13.30;99.90;;;;;;4972965;28;19910;-75
2022/11/30 02:18:36;;;;;;;;;;;13.60;99.90;;;;;;4967131;28;19914;-74
2022/11/30 02:21:06;;;;;;;;;;;13.60;99.90;;;;;;4979217;28;20013;-75
2022/11/30 02:23:46;;;;;;;;;;;13.50;99.90;;;;;;4981356;28;19912;-72
2022/11/30 02:26:20;;;;;;;;;;;13.50;99.90;;;;;;4991285;28;20001;-73
2022/11/30 02:28:51;;;;;;;;;;;13.50;99.90;;;;;;4984796;28;20030;-76
2022/11/30 02:31:22;;;;;;;;;;;13.60;99.90;;;;;;4979028;28;19985;-75
2022/11/30 02:33:49;;;;;;;;;;;13.40;99.90;;;;;;4985811;28;19957;-74
2022/11/30 02:36:15;;;;;;;;;;;13.40;99.90;;;;;;4985434;28;20125;-74
2022/11/30 02:38:41;;;;;;;;;;;13.20;99.90;;;;;;4979518;28;20156;-74
2022/11/30 02:41:06;;;;;;;;;;;13.30;99.90;;;;;;4976498;28;19918;-74
2022/11/30 02:43:32;;;;;;;;;;;13.20;99.90;;;;;;4973622;28;19917;-75
2022/11/30 02:46:07;;;;;;;;;;;13.20;99.90;;;;;;4969386;28;19918;-74
2022/11/30 02:48:43;;;;;;;;;;;13.00;99.90;;;;;;4967042;28;19924;-74
2022/11/30 02:51:09;;;;;;;;;;;12.90;99.90;;;;;;4998415;28;19929;-73
2022/11/30 02:53:35;;;;;;;;;;;12.60;99.90;;;;;;4971413;28;19915;-73
2022/11/30 02:56:01;;;;;;;;;;;12.70;99.90;;;;;;4967644;28;19910;-74
2022/11/30 02:58:26;;;;;;;;;;;12.50;99.90;;;;;;4967377;28;20001;-75
2022/11/30 03:00:52;;;;;;;;;;;12.50;99.90;;;;;;4968219;28;19922;-75
2022/11/30 03:03:17;;;;;;;;;;;12.60;99.90;;;;;;4966297;28;20444;-75
2022/11/30 03:05:43;;;;;;;;;;;12.30;99.90;;;;;;4985448;28;19918;-74
2022/11/30 03:08:09;;;;;;;;;;;12.10;99.90;;;;;;4968009;28;19915;-74
2022/11/30 03:10:34;;;;;;;;;;;12.00;99.90;;;;;;4970948;28;19925;-74
2022/11/30 03:13:00;;;;;;;;;;;12.10;99.90;;;;;;4971438;28;19945;-75
2022/11/30 03:15:25;;;;;;;;;;;11.70;99.90;;;;;;4967537;28;19987;-75
2022/11/30 03:17:51;;;;;;;;;;;11.50;99.90;;;;;;4963372;28;20104;-74
2022/11/30 03:20:17;;;;;;;;;;;11.70;99.90;;;;;;4967188;28;19965;-74
2022/11/30 03:22:42;;;;;;;;;;;11.80;99.90;;;;;;4966783;28;20234;-75
2022/11/30 03:25:08;;;;;;;;;;;11.90;99.90;;;;;;4971710;28;19976;-74
2022/11/30 03:27:33;;;;;;;;;;;11.90;99.90;;;;;;4962571;28;20340;-74
2022/11/30 03:29:59;;;;;;;;;;;12.00;99.90;;;;;;4982368;28;19910;-75
2022/11/30 03:32:24;;;;;;;;;;;12.40;99.90;;;;;;4967461;28;19910;-75
2022/11/30 03:34:50;;;;;;;;;;;12.30;99.90;;;;;;4973041;28;19922;-74
2022/11/30 03:37:15;;;;;;;;;;;12.20;99.90;;;;;;4980435;28;19926;-74
2022/11/30 03:39:41;;;;;;;;;;;12.40;99.90;;;;;;4973377;28;19911;-75
2022/11/30 03:42:06;;;;;;;;;;;12.30;99.90;;;;;;4968023;28;19918;-75
2022/11/30 03:44:32;;;;;;;;;;;12.10;99.90;;;;;;4968437;28;19910;-74
2022/11/30 03:46:57;;;;;;;;;;;12.20;99.90;;;;;;4982000;28;20016;-74
2022/11/30 03:49:23;;;;;;;;;;;12.00;99.90;;;;;;5008579;28;20330;-73
2022/11/30 03:51:48;;;;;;;;;;;12.10;99.90;;;;;;4983786;28;20647;-74
2022/11/30 03:54:14;;;;;;;;;;;12.20;99.90;;;;;;4974918;28;19959;-74
2022/11/30 03:56:39;;;;;;;;;;;12.40;99.90;;;;;;4974969;28;19965;-74
2022/11/30 03:59:04;;;;;;;;;;;12.30;99.90;;;;;;4995026;28;19910;-74
2022/11/30 04:01:30;;;;;;;;;;;12.20;99.90;;;;;;4973718;28;19930;-75
2022/11/30 04:03:56;;;;;;;;;;;12.10;99.90;;;;;;5010865;28;19949;-73
2022/11/30 04:06:22;;;;;;;;;;;12.10;99.90;;;;;;4973751;28;20134;-75
2022/11/30 04:08:48;;;;;;;;;;;12.30;99.90;;;;;;4971277;28;19918;-74
2022/11/30 04:11:13;;;;;;;;;;;12.20;99.90;;;;;;4977661;28;20331;-74
2022/11/30 04:13:39;;;;;;;;;;;12.10;99.90;;;;;;4973518;28;20009;-75
2022/11/30 04:16:05;;;;;;;;;;;12.20;99.90;;;;;;4973423;28;20418;-74
2022/11/30 04:18:32;;;;;;;;;;;12.10;99.90;;;;;;4982010;28;20071;-73
2022/11/30 04:20:58;;;;;;;;;;;12.00;99.90;;;;;;4971864;28;19913;-73
2022/11/30 04:23:24;;;;;;;;;;;12.20;99.90;;;;;;4982719;28;19916;-74
2022/11/30 04:25:50;;;;;;;;;;;11.60;99.90;;;;;;4978488;28;20028;-74
2022/11/30 04:28:16;;;;;;;;;;;11.40;99.90;;;;;;4974350;28;19910;-75
2022/11/30 04:30:42;;;;;;;;;;;11.60;99.90;;;;;;5003900;28;19910;-73
2022/11/30 04:33:08;;;;;;;;;;;11.50;99.90;;;;;;4974278;28;20385;-75
2022/11/30 04:35:37;;;;;;;;;;;11.40;99.90;;;;;;4977112;28;20487;-73
2022/11/30 04:38:03;;;;;;;;;;;11.30;99.90;;;;;;4977473;28;19961;-75
2022/11/30 04:40:28;;;;;;;;;;;11.60;99.90;;;;;;4978951;28;19928;-75
2022/11/30 04:42:54;;;;;;;;;;;11.40;99.90;;;;;;4977086;28;20163;-75
2022/11/30 04:45:19;;;;;;;;;;;11.30;99.90;;;;;;4969647;28;20040;-75
2022/11/30 04:47:45;;;;;;;;;;;11.40;99.90;;;;;;4977154;28;19914;-73
2022/11/30 04:50:10;;;;;;;;;;;11.70;99.90;;;;;;4970128;28;19976;-75
2022/11/30 04:52:36;;;;;;;;;;;11.50;99.90;;;;;;4974632;28;19910;-74
2022/11/30 04:55:03;;;;;;;;;;;11.40;99.90;;;;;;4976174;28;19914;-75
2022/11/30 04:57:28;;;;;;;;;;;11.60;99.90;;;;;;4969418;28;20278;-73
2022/11/30 04:59:54;;;;;;;;;;;11.50;99.90;;;;;;4969921;28;19926;-75
2022/11/30 05:02:19;;;;;;;;;;;11.60;99.90;;;;;;4969734;28;20599;-75
2022/11/30 05:04:45;;;;;;;;;;;11.50;99.90;;;;;;4974152;28;19910;-75
2022/11/30 05:07:10;;;;;;;;;;;11.60;99.90;;;;;;4968225;28;20371;-75
2022/11/30 05:09:37;;;;;;;;;;;11.70;99.90;;;;;;4974471;28;20279;-73
2022/11/30 05:12:03;;;;;;;;;;;11.60;99.90;;;;;;4972558;28;20676;-74
2022/11/30 05:14:28;;;;;;;;;;;11.80;99.90;;;;;;4971250;28;19921;-76
2022/11/30 05:16:54;;;;;;;;;;;11.90;99.90;;;;;;4984264;28;19960;-75
2022/11/30 05:19:19;;;;;;;;;;;11.80;99.90;;;;;;4976250;28;19984;-75
2022/11/30 05:21:45;;;;;;;;;;;11.70;99.90;;;;;;4983106;28;19964;-75
2022/11/30 05:24:10;;;;;;;;;;;11.80;99.90;;;;;;4977123;28;19918;-75
2022/11/30 05:26:36;;;;;;;;;;;11.60;99.90;;;;;;4969214;28;20005;-77
2022/11/30 05:29:03;;;;;;;;;;;11.90;99.90;;;;;;4975131;28;20009;-75
2022/11/30 05:31:28;;;;;;;;;;;11.70;99.90;;;;;;4969096;28;19925;-75
2022/11/30 05:33:54;;;;;;;;;;;11.70;99.90;;;;;;4989632;28;19918;-73
2022/11/30 05:36:19;;;;;;;;;;;11.60;99.90;;;;;;4992691;28;20322;-74
2022/11/30 05:38:45;;;;;;;;;;;11.50;99.90;;;;;;4985376;28;19917;-74
2022/11/30 05:41:11;;;;;;;;;;;11.30;99.90;;;;;;4981331;28;19910;-75
2022/11/30 05:43:36;;;;;;;;;;;11.60;99.90;;;;;;4977281;28;19910;-75
2022/11/30 05:46:03;;;;;;;;;;;11.60;99.90;;;;;;4984148;28;19918;-74
2022/11/30 05:48:28;;;;;;;;;;;11.60;99.90;;;;;;4972661;28;20355;-73
2022/11/30 05:50:54;;;;;;;;;;;11.50;99.90;;;;;;4962575;28;19920;-75
2022/11/30 05:53:19;;;;;;;;;;;11.50;99.90;;;;;;4981177;28;19920;-74
2022/11/30 05:55:45;;;;;;;;;;;11.40;99.90;;;;;;4992026;28;19914;-74
2022/11/30 05:58:10;;;;;;;;;;;11.40;99.90;;;;;;4971323;28;19937;-75
2022/11/30 06:00:36;;;;;;;;;;;11.70;99.90;;;;;;4976276;28;19943;-75
2022/11/30 06:03:01;;;;;;;;;;;11.60;99.90;;;;;;4967984;28;19925;-75
2022/11/30 06:05:27;;;;;;;;;;;11.60;99.90;;;;;;4971904;28;19918;-74
2022/11/30 06:07:53;;;;;;;;;;;11.70;99.90;;;;;;4975690;28;19933;-76
2022/11/30 06:10:19;;;;;;;;;;;11.60;99.90;;;;;;4981740;28;19910;-74
2022/11/30 06:12:45;;;;;;;;;;;11.70;99.90;;;;;;4972979;28;19914;-75
2022/11/30 06:15:10;;;;;;;;;;;11.80;99.90;;;;;;4976298;28;19921;-75
2022/11/30 06:17:36;;;;;;;;;;;11.90;99.90;;;;;;4984099;28;19981;-75
2022/11/30 06:20:06;;;;;;;;;;;11.80;99.90;;;;;;4991672;28;19918;-76
2022/11/30 06:22:32;;;;;;;;;;;11.70;99.90;;;;;;4979415;28;19977;-74
2022/11/30 06:24:57;;;;;;;;;;;11.80;99.90;;;;;;4970346;28;20004;-74
2022/11/30 06:27:23;;;;;;;;;;;11.80;99.90;;;;;;4969111;28;19923;-74
2022/11/30 06:29:48;;;;;;;;;;;11.70;99.90;;;;;;5001451;28;20010;-74
2022/11/30 06:32:14;;;;;;;;;;;11.50;99.90;;;;;;4978384;28;20428;-74
2022/11/30 06:34:39;;;;;;;;;;;11.70;99.90;;;;;;4973487;28;19989;-74
2022/11/30 06:37:05;;;;;;;;;;;11.30;99.90;;;;;;4976101;28;19934;-74
2022/11/30 06:39:30;;;;;;;;;;;11.20;99.90;;;;;;4973264;28;20277;-74
2022/11/30 06:41:56;;;;;;;;;;;11.40;99.90;;;;;;4965836;28;20283;-74
2022/11/30 06:44:21;;;;;;;;;;;11.70;99.90;;;;;;4969690;28;19922;-73
2022/11/30 06:46:47;;;;;;;;;;;11.60;99.90;;;;;;4966606;28;19921;-75
2022/11/30 06:49:13;;;;;;;;;;;11.80;99.90;;;;;;4969425;28;20085;-72
2022/11/30 06:51:38;;;;;;;;;;;11.70;99.90;;;;;;4979410;28;19941;-74
2022/11/30 06:54:04;;;;;;;;;;;11.80;99.90;;;;;;4963542;28;20178;-73
2022/11/30 06:56:30;;;;;;;;;;;12.10;99.90;;;;;;4962270;28;19957;-74
2022/11/30 06:58:56;;;;;;;;;;;12.10;99.90;;;;;;4970299;28;20016;-74
2022/11/30 07:01:22;;;;;;;;;;;12.10;99.90;;;;;;4965587;28;20383;-73
2022/11/30 07:03:47;;;;;;;;;;;12.20;99.90;;;;;;4972101;28;20225;-73
2022/11/30 07:06:13;;;;;;;;;;;12.30;99.90;;;;;;4967994;28;19914;-74
2022/11/30 07:08:39;;;;;;;;;;;12.20;99.90;;;;;;4966616;28;19917;-76
2022/11/30 07:11:05;;;;;;;;;;;12.40;99.90;;;;;;4966426;28;20387;-75
2022/11/30 07:13:30;;;;;;;;;;;12.20;99.90;;;;;;4972102;28;19914;-75
2022/11/30 07:15:56;;;;;;;;;;;12.10;99.90;;;;;;4974257;28;20149;-74
2022/11/30 07:18:21;;;;;;;;;;;11.90;99.90;;;;;;4972616;28;20075;-73
2022/11/30 07:20:47;;;;;;;;;;;11.70;99.90;;;;;;4972911;28;19914;-74
2022/11/30 07:26:08;;;;;;;;;;;11.50;99.90;;;;;;4966471;28;20473;-73
2022/11/30 07:28:44;;;;;;;;;;;11.20;99.90;;;;;;4970143;28;19925;-75
2022/11/30 07:31:13;;;;;;;;;;;11.40;99.90;;;;;;4996153;28;19914;-74
2022/11/30 07:33:39;;;;;;;;;;;11.90;99.90;;;;;;4968689;28;19910;-74
2022/11/30 07:36:05;;;;;;;;;;;11.90;99.90;;;;;;4969650;28;20409;-75
2022/11/30 07:38:31;;;;;;;;;;;11.80;99.90;;;;;;4969977;28;19914;-73
2022/11/30 07:40:56;;;;;;;;;;;11.70;99.90;;;;;;4970200;28;19913;-75
2022/11/30 07:43:22;;;;;;;;;;;12.10;99.90;;;;;;4969121;28;19966;-74
2022/11/30 07:45:52;;;;;;;;;;;12.50;99.90;;;;;;4967566;28;20335;-74
2022/11/30 07:48:17;;;;;;;;;;;12.40;99.90;;;;;;4958132;28;20268;-74
2022/11/30 07:50:43;;;;;;;;;;;12.50;99.90;;;;;;4972240;28;19973;-74
2022/11/30 07:53:09;;;;;;;;;;;12.70;99.90;;;;;;4979831;28;19925;-73
2022/11/30 07:55:34;;;;;;;;;;;13.00;99.90;;;;;;5002629;28;19925;-75
2022/11/30 07:58:00;;;;;;;;;;;12.80;99.90;;;;;;4981598;28;19922;-73
2022/11/30 08:00:25;;;;;;;;;;;12.90;99.90;;;;;;4985373;28;19928;-73
2022/11/30 08:02:51;;;;;;;;;;;12.90;99.90;;;;;;4975554;28;19910;-74
2022/11/30 08:05:16;;;;;;;;;;;12.80;99.90;;;;;;4971094;28;20329;-75
2022/11/30 08:07:42;;;;;;;;;;;13.10;99.90;;;;;;4973827;28;20346;-74
2022/11/30 08:10:07;;;;;;;;;;;13.10;99.90;;;;;;4974618;28;19915;-73
2022/11/30 08:12:33;;;;;;;;;;;13.10;99.90;;;;;;4968540;28;19918;-76
2022/11/30 08:14:59;;;;;;;;;;;12.80;99.90;;;;;;4966142;28;19914;-73
2022/11/30 08:17:24;;;;;;;;;;;13.20;99.90;;;;;;4981545;28;19918;-74
2022/11/30 08:19:49;;;;;;;;;;;13.30;99.90;;;;;;4965123;28;19914;-75
2022/11/30 08:22:15;;;;;;;;;;;13.10;99.90;;;;;;4973164;28;20211;-74
2022/11/30 08:24:40;;;;;;;;;;;13.30;99.90;;;;;;4972119;28;19916;-74
2022/11/30 08:27:06;;;;;;;;;;;13.50;99.90;;;;;;4968485;28;19914;-74
2022/11/30 08:29:32;;;;;;;;;;;13.60;99.90;;;;;;4969369;28;19961;-76
2022/11/30 08:31:57;;;;;;;;;;;13.60;99.90;;;;;;4968712;28;19975;-73
2022/11/30 08:34:23;;;;;;;;;;;13.50;99.90;;;;;;4967838;28;19910;-74
2022/11/30 08:36:48;;;;;;;;;;;13.50;99.90;;;;;;4966716;28;19925;-73
2022/11/30 08:39:14;;;;;;;;;;;13.80;99.90;;;;;;4964572;28;19930;-74
2022/11/30 08:41:39;;;;;;;;;;;13.90;99.90;;;;;;4964153;28;19914;-74
2022/11/30 08:44:05;;;;;;;;;;;13.70;99.90;;;;;;4969880;28;19914;-74
2022/11/30 08:46:30;;;;;;;;;;;13.70;99.90;;;;;;4966418;28;19918;-73
2022/11/30 08:48:56;;;;;;;;;;;13.40;99.90;;;;;;4968107;28;19973;-73
2022/11/30 08:51:22;;;;;;;;;;;13.70;99.90;;;;;;4974276;28;19914;-74
2022/11/30 08:53:48;;;;;;;;;;;13.40;99.90;;;;;;4971037;28;19961;-73
2022/11/30 08:56:14;;;;;;;;;;;13.30;99.90;;;;;;4969057;28;19978;-73
2022/11/30 08:58:40;;;;;;;;;;;12.90;99.90;;;;;;4967999;28;19984;-73
2022/11/30 09:01:13;;;;;;;;;;;13.00;99.90;;;;;;4983984;28;19925;-74
2022/11/30 09:03:39;;;;;;;;;;;13.20;99.90;;;;;;4991175;28;19902;-74
2022/11/30 09:06:06;;;;;;;;;;;13.30;99.90;;;;;;4985397;28;19922;-74
2022/11/30 09:08:31;;;;;;;;;;;13.40;99.90;;;;;;4973757;28;19948;-75
2022/11/30 09:10:57;;;;;;;;;;;13.60;99.90;;;;;;4968110;28;19946;-74
2022/11/30 09:13:22;;;;;;;;;;;13.80;99.90;;;;;;4982687;28;20492;-74
2022/11/30 09:15:54;;;;;;;;;;;14.10;99.90;;;;;;4974345;28;19918;-75
2022/11/30 09:18:20;;;;;;;;;;;14.10;99.90;;;;;;4973078;28;19924;-74
2022/11/30 09:20:45;;;;;;;;;;;13.50;99.90;;;;;;4981249;28;19975;-73
2022/11/30 09:23:11;;;;;;;;;;;13.60;99.90;;;;;;4984639;28;20247;-73
2022/11/30 09:25:36;;;;;;;;;;;13.50;99.90;;;;;;4994547;28;19936;-74
2022/11/30 09:28:01;;;;;;;;;;;13.40;99.90;;;;;;4969597;28;19925;-74
2022/11/30 09:30:27;;;;;;;;;;;13.80;99.90;;;;;;4983635;28;20530;-74
2022/11/30 09:32:52;;;;;;;;;;;14.00;99.90;;;;;;4967683;28;19962;-76
2022/11/30 09:35:18;;;;;;;;;;;14.30;99.90;;;;;;4980917;28;20300;-75
2022/11/30 09:37:43;;;;;;;;;;;14.50;99.90;;;;;;4968525;28;19914;-74
2022/11/30 09:40:10;;;;;;;;;;;14.60;99.90;;;;;;4961260;28;19921;-74
2022/11/30 09:42:55;;;;;;;;;;;14.40;99.90;;;;;;4966517;28;19914;-74
2022/11/30 09:45:27;;;;;;;;;;;14.40;99.90;;;;;;4964255;28;20265;-73
2022/11/30 09:47:57;;;;;;;;;;;14.40;99.90;;;;;;4971773;28;19920;-73
2022/11/30 09:50:25;;;;;;;;;;;14.40;99.90;;;;;;4975566;28;19973;-71
2022/11/30 09:53:02;;;;;;;;;;;14.30;99.90;;;;;;4990728;28;19917;-74
2022/11/30 09:55:38;;;;;;;;;;;14.20;99.90;;;;;;4990847;28;20207;-74
2022/11/30 09:58:05;;;;;;;;;;;14.10;99.90;;;;;;4993094;28;20265;-74
2022/11/30 10:00:32;;;;;;;;;;;14.10;99.90;;;;;;4970532;28;19922;-73
2022/11/30 10:03:00;;;;;;;;;;;14.40;99.90;;;;;;4969501;28;19910;-73
2022/11/30 10:05:33;;;;;;;;;;;14.60;99.90;;;;;;4964731;28;19918;-73
2022/11/30 10:08:07;;;;;;;;;;;14.50;99.90;;;;;;4967566;28;20403;-74
2022/11/30 10:10:39;;;;;;;;;;;14.10;99.90;;;;;;4994559;28;19926;-74
2022/11/30 10:13:23;;;;;;;;;;;14.00;99.90;;;;;;4966362;28;20322;-73
2022/11/30 10:15:53;;;;;;;;;;;14.20;99.90;;;;;;4972130;28;20123;-73
2022/11/30 10:18:27;;;;;;;;;;;14.40;99.90;;;;;;4964803;28;20370;-73
2022/11/30 10:20:52;;;;;;;;;;;14.50;99.90;;;;;;4968765;28;19914;-73
2022/11/30 10:23:48;;;;;;;;;;;14.60;99.90;;;;;;4972267;28;19910;-76
2022/11/30 10:26:15;;;;;;;;;;;14.80;99.90;;;;;;4958160;28;20009;-73
2022/11/30 10:28:51;;;;;;;;;;;15.10;99.90;;;;;;4965646;28;19921;-73
2022/11/30 10:31:17;;;;;;;;;;;15.10;99.90;;;;;;4967331;28;19920;-73
2022/11/30 10:33:50;;;;;;;;;;;14.80;99.90;;;;;;4986056;28;19922;-73
2022/11/30 10:36:28;;;;;;;;;;;14.70;99.90;;;;;;4970068;28;19910;-73
2022/11/30 10:38:59;;;;;;;;;;;14.80;99.90;;;;;;4975781;28;20004;-74
2022/11/30 10:41:28;;;;;;;;;;;14.70;99.90;;;;;;4969665;28;19996;-73
2022/11/30 10:43:55;;;;;;;;;;;14.50;99.90;;;;;;4973451;28;19910;-73
2022/11/30 10:46:32;;;;;;;;;;;14.30;99.90;;;;;;4977315;28;19930;-74
2022/11/30 10:49:02;;;;;;;;;;;14.40;99.90;;;;;;4983381;28;19929;-75
2022/11/30 10:51:28;;;;;;;;;;;14.80;99.90;;;;;;4966294;28;19910;-75
2022/11/30 10:53:53;;;;;;;;;;;14.90;99.90;;;;;;4967338;28;19945;-74
2022/11/30 10:56:19;;;;;;;;;;;15.00;99.90;;;;;;4966273;28;19913;-74
2022/11/30 10:58:54;;;;;;;;;;;15.10;99.90;;;;;;4965962;28;19914;-75
2022/11/30 11:01:33;;;;;;;;;;;15.20;99.90;;;;;;4964515;28;19918;-74
2022/11/30 11:04:15;;;;;;;;;;;15.10;99.90;;;;;;4961771;28;19990;-74
2022/11/30 11:06:48;;;;;;;;;;;15.00;99.90;;;;;;4961345;28;19915;-74
2022/11/30 11:09:33;;;;;;;;;;;15.20;99.90;;;;;;4964715;28;20464;-75
2022/11/30 11:12:15;;;;;;;;;;;14.80;99.90;;;;;;4962412;28;19922;-74
2022/11/30 11:14:40;;;;;;;;;;;14.50;99.90;;;;;;4962330;28;19914;-75
2022/11/30 11:17:18;;;;;;;;;;;14.40;99.90;;;;;;4963663;28;19957;-74
2022/11/30 11:19:46;;;;;;;;;;;14.10;99.90;;;;;;4961239;28;19910;-75
2022/11/30 11:22:20;;;;;;;;;;;14.00;99.90;;;;;;4963409;28;19910;-72
2022/11/30 11:24:46;;;;;;;;;;;13.70;99.90;;;;;;4979533;28;20007;-74
2022/11/30 11:27:28;;;;;;;;;;;13.60;99.90;;;;;;4967331;28;19918;-74
2022/11/30 11:30:00;;;;;;;;;;;13.70;99.90;;;;;;4955550;28;20415;-74
2022/11/30 11:32:26;;;;;;;;;;;13.80;99.90;;;;;;4949549;28;20012;-74
2022/11/30 11:34:52;;;;;;;;;;;14.00;99.90;;;;;;4960212;28;19922;-74
2022/11/30 11:37:20;;;;;;;;;;;14.20;99.90;;;;;;4963793;28;20008;-74
2022/11/30 11:40:04;;;;;;;;;;;14.50;99.90;;;;;;4962991;28;19921;-74
2022/11/30 11:42:34;;;;;;;;;;;14.70;99.90;;;;;;4955435;28;19962;-74
2022/11/30 11:45:01;;;;;;;;;;;14.90;99.90;;;;;;4959763;28;19961;-74
2022/11/30 11:47:37;;;;;;;;;;;15.00;99.90;;;;;;4956645;28;19994;-74
2022/11/30 11:50:05;;;;;;;;;;;14.80;99.90;;;;;;4963683;28;20509;-75
2022/11/30 11:52:30;;;;;;;;;;;14.50;99.90;;;;;;4970306;28;20301;-73
2022/11/30 11:54:57;;;;;;;;;;;14.20;99.90;;;;;;4962649;28;19910;-74
2022/11/30 11:57:32;;;;;;;;;;;14.20;99.90;;;;;;4970567;28;20596;-75
2022/11/30 12:00:04;;;;;;;;;;;14.10;99.90;;;;;;4968385;28;19918;-75
2022/11/30 12:02:32;;;;;;;;;;;14.00;99.90;;;;;;4967914;28;19961;-73
2022/11/30 12:05:01;;;;;;;;;;;13.70;99.90;;;;;;4981096;28;19917;-75
2022/11/30 12:07:45;;;;;;;;;;;13.60;99.90;;;;;;4967898;28;19926;-73
2022/11/30 12:10:11;;;;;;;;;;;13.50;99.90;;;;;;4972326;28;20335;-72
2022/11/30 12:12:37;;;;;;;;;;;13.30;99.90;;;;;;4972570;28;20021;-73
2022/11/30 12:15:02;;;;;;;;;;;13.10;99.90;;;;;;4967191;28;19914;-75
2022/11/30 12:17:41;;;;;;;;;;;13.20;99.90;;;;;;4973366;28;19925;-75
2022/11/30 12:20:07;;;;;;;;;;;13.30;99.90;;;;;;4966868;28;19910;-75
2022/11/30 12:22:51;;;;;;;;;;;13.30;99.90;;;;;;4978141;28;19920;-75
2022/11/30 12:25:25;;;;;;;;;;;13.30;99.90;;;;;;4978487;28;19925;-74
2022/11/30 12:27:57;;;;;;;;;;;13.30;99.90;;;;;;4996405;28;19920;-74
2022/11/30 12:30:26;;;;;;;;;;;13.10;99.90;;;;;;4989625;28;19917;-74
2022/11/30 12:32:57;;;;;;;;;;;13.00;99.90;;;;;;4978116;28;19917;-75
2022/11/30 12:35:41;;;;;;;;;;;13.10;99.90;;;;;;4971840;28;19982;-73
2022/11/30 12:38:17;;;;;;;;;;;13.20;99.90;;;;;;4969750;28;20456;-73
2022/11/30 12:41:02;;;;;;;;;;;13.00;99.90;;;;;;4976585;28;19981;-76
2022/11/30 12:43:46;;;;;;;;;;;13.00;99.90;;;;;;4964778;28;20406;-73
2022/11/30 12:46:27;;;;;;;;;;;12.70;99.90;;;;;;4979610;28;20001;-72
2022/11/30 12:49:04;;;;;;;;;;;12.30;99.90;;;;;;4980459;28;19898;-73
2022/11/30 12:51:36;;;;;;;;;;;12.00;99.90;;;;;;4981202;28;19949;-70
2022/11/30 12:54:02;;;;;;;;;;;11.70;99.90;;;;;;4973226;28;19925;-74
2022/11/30 12:56:41;;;;;;;;;;;11.50;99.90;;;;;;4972015;28;19918;-74
2022/11/30 12:59:06;;;;;;;;;;;11.40;99.90;;;;;;4995255;28;19918;-72
2022/11/30 13:01:42;;;;;;;;;;;11.40;99.90;;;;;;4975025;28;19929;-73
2022/11/30 13:04:27;;;;;;;;;;;11.50;99.90;;;;;;4970698;28;19922;-73
2022/11/30 13:06:57;;;;;;;;;;;11.50;99.90;;;;;;4969598;28;19914;-72
2022/11/30 13:09:35;;;;;;;;;;;11.70;99.90;;;;;;4971324;28;19910;-75
2022/11/30 13:12:06;;;;;;;;;;;11.40;99.90;;;;;;4968865;28;19917;-72
2022/11/30 13:14:33;;;;;;;;;;;11.30;99.90;;;;;;4972009;28;20116;-71
2022/11/30 13:17:00;;;;;;;;;;;11.10;99.90;;;;;;4988441;28;20029;-72
2022/11/30 13:19:31;;;;;;;;;;;11.00;99.90;;;;;;4977423;28;20507;-72
2022/11/30 13:22:01;;;;;;;;;;;11.00;99.90;;;;;;4974152;28;20340;-72
2022/11/30 13:24:47;;;;;;;;;;;10.90;99.90;;;;;;4967675;28;20220;-73
2022/11/30 13:27:16;;;;;;;;;;;10.90;99.90;;;;;;4960186;28;20155;-73
2022/11/30 13:29:51;;;;;;;;;;;10.90;99.90;;;;;;4966312;28;19990;-73
2022/11/30 13:32:17;;;;;;;;;;;10.90;99.90;;;;;;4982043;28;19928;-73
2022/11/30 13:34:43;;;;;;;;;;;11.00;99.90;;;;;;4965572;28;20392;-72
2022/11/30 13:37:16;;;;;;;;;;;11.00;99.90;;;;;;4968170;28;19910;-73
2022/11/30 13:39:43;;;;;;;;;;;10.90;99.90;;;;;;4969387;28;19910;-72
2022/11/30 13:42:27;;;;;;;;;;;11.00;99.90;;;;;;4968175;28;19910;-72
2022/11/30 13:44:53;;;;;;;;;;;11.10;99.90;;;;;;4965414;28;19961;-73
2022/11/30 13:47:29;;;;;;;;;;;11.10;99.90;;;;;;4965714;28;19976;-72
2022/11/30 13:49:56;;;;;;;;;;;11.00;99.90;;;;;;4996286;28;19914;-72
2022/11/30 13:52:40;;;;;;;;;;;11.00;99.90;;;;;;4964610;28;20026;-72
2022/11/30 13:55:26;;;;;;;;;;;11.00;99.90;;;;;;4962454;28;19914;-73
2022/11/30 13:57:51;;;;;;;;;;;11.00;99.90;;;;;;4965797;28;19910;-72
2022/11/30 14:00:29;;;;;;;;;;;11.10;99.90;;;;;;4960304;28;19918;-72
2022/11/30 14:02:56;;;;;;;;;;;11.00;99.90;;;;;;4966463;28;20005;-72
2022/11/30 14:05:31;;;;;;;;;;;11.10;99.90;;;;;;4964305;28;19917;-73
2022/11/30 14:08:00;;;;;;;;;;;11.00;99.90;;;;;;4962324;28;19914;-75
2022/11/30 14:10:27;;;;;;;;;;;10.90;99.90;;;;;;4969497;28;19918;-72
2022/11/30 14:12:56;;;;;;;;;;;10.90;99.90;;;;;;4966777;28;19918;-74
2022/11/30 14:15:37;;;;;;;;;;;10.80;99.90;;;;;;4966752;28;19921;-74
2022/11/30 14:18:08;;;;;;;;;;;10.80;99.90;;;;;;4968586;28;19964;-73
2022/11/30 14:20:52;;;;;;;;;;;11.00;99.90;;;;;;4987585;28;19914;-72
2022/11/30 14:23:24;;;;;;;;;;;11.10;99.90;;;;;;4965858;28;19914;-74
2022/11/30 14:25:50;;;;;;;;;;;11.00;99.90;;;;;;4971071;28;19918;-72